Pagina principale
METAR-TAF:

METAR-TAF

Aeroporti :

Aeroporto di Milano-Malpensa

Milano, Italia

latitudine: 45-37N, longitudine: 008-44E, altezza: 234 m

Osservazione

Il bollettino è stato emesso 36 minuti fa, alle 06:50 UTC
Vento 4 kt da nord/nord-est
Temperature 6°C
Umidità 100%
Pressione 1011 hPa
Visibilità 10 km o più
Nuvoloso ad un'altezza di 800 ft

METAR: LIMC 180650Z 03004KT 9999 BKN008 06/06 Q1011 NOSIG

Ora: 08:26 (07:26 UTC)

Previsione

Il bollettino è stato emesso 2 ore e 26 minuti fa, alle 05:00 UTC
Previsione valida dal 18 alle 06 UTC al 19 alle 12 UTC
Vento 5 kt da direzioni variabili
Visibilità: 7000 m
Nubi sparse ad un'altezza di 1500 ft
Nuvoloso ad un'altezza di 4000 ft
Evoluzione graduale
dal 18 alle 16 UTC al 18 alle 18 UTC
Visibilità: 4000 m
pioggia

TAF: LIMC 180500Z 1806/1912 VRB05KT 7000 SCT015 BKN040 BECMG 1816/1818 4000 RA

Osservazioni e previsioni meteorologiche di più di 4000 aeroporti (messaggi METAR e TAF).

Le stazioni disponibili sono rappresentate dai dischi gialli e rossi sulla carta.

Puntare il mouse per vedere il nome della stazione.

Clicca sopra per visualizzare le osservazioni e previsioni meteorologiche.

Per cambiare la mappa : fare clic sui pulsanti verdi con una croce nera per ingrandire, il pulsante verde con un trattino per diminuire, o sulla freccia verde per le mappe adiacenti.


METAR-TAF: